TNCB/BON METAR and TAF weather

Enter ICAO airport designator
Station Type Date Time Source
TNCB METAR 2019/08/22 14:55 UTC NOAA

TNCB 221455Z 12011KT 080V170 9999 BKN022 32/24 Q1015


Station Type Date Time Source
TNCB Decoded METAR 2019/08/22 14:55 UTC NOAA

Station name not available
Aug 22, 2019 - 10:55 AM EDT / 2019.08.22 1455 UTC
Wind: from the ESE (120 degrees) at 13 MPH (11 KT) (direction variable):0
Visibility: greater than 7 mile(s):0
Sky conditions: mostly cloudy
Temperature: 89 F (32 C)
Heat index: 98.4 F (36.9 C):1
Dew Point: 75 F (24 C)
Relative Humidity: 62%
Pressure (altimeter): 29.97 in. Hg (1015 hPa)
ob: TNCB 221455Z 12011KT 080V170 9999 BKN022 32/24 Q1015
cycle: 15

Station Type Date Time Source
TNCB TAF 2019/08/22 12:27 UTC NOAA

TAF TAF TNCB 221114Z 2212/2318 09012KT 9999 SCT018 PROB30
TEMPO 2306/2318 6000 SHRA SCT016CB

Example: see airport list